sensor_id;sensor_type;location;lat;lon;timestamp;pressure;altitude;pressure_sealevel;temperature;humidity
5753;BME280;2901;42.140;24.760;2022-09-02T00:00:39;99064.69;;;23.59;100.00
5753;BME280;2901;42.140;24.760;2022-09-02T00:03:05;99059.94;;;23.64;100.00
5753;BME280;2901;42.140;24.760;2022-09-02T00:05:30;99056.97;;;23.68;100.00
5753;BME280;2901;42.140;24.760;2022-09-02T00:07:56;99062.25;;;23.68;100.00
5753;BME280;2901;42.140;24.760;2022-09-02T00:10:21;99060.78;;;23.64;100.00
5753;BME280;2901;42.140;24.760;2022-09-02T00:12:47;99051.69;;;23.68;100.00
5753;BME280;2901;42.140;24.760;2022-09-02T00:15:12;99056.88;;;23.70;100.00
5753;BME280;2901;42.140;24.760;2022-09-02T00:17:38;99060.38;;;23.70;100.00
5753;BME280;2901;42.140;24.760;2022-09-02T00:20:04;99057.75;;;23.70;100.00
5753;BME280;2901;42.140;24.760;2022-09-02T00:22:29;99058.38;;;23.74;100.00
5753;BME280;2901;42.140;24.760;2022-09-02T00:24:55;99046.63;;;23.78;100.00
5753;BME280;2901;42.140;24.760;2022-09-02T00:27:20;99050.88;;;23.81;100.00
5753;BME280;2901;42.140;24.760;2022-09-02T00:29:45;99053.84;;;23.89;100.00
5753;BME280;2901;42.140;24.760;2022-09-02T00:32:11;99046.66;;;23.91;100.00
5753;BME280;2901;42.140;24.760;2022-09-02T00:34:36;99049.09;;;23.94;100.00
5753;BME280;2901;42.140;24.760;2022-09-02T00:37:02;99047.28;;;23.94;100.00
5753;BME280;2901;42.140;24.760;2022-09-02T00:39:27;99047.59;;;23.90;100.00
5753;BME280;2901;42.140;24.760;2022-09-02T00:41:53;99052.47;;;23.96;100.00
5753;BME280;2901;42.140;24.760;2022-09-02T00:44:19;99054.69;;;24.02;100.00
5753;BME280;2901;42.140;24.760;2022-09-02T00:46:44;99046.03;;;24.00;100.00
5753;BME280;2901;42.140;24.760;2022-09-02T00:49:28;99051.31;;;24.00;100.00
5753;BME280;2901;42.140;24.760;2022-09-02T00:55:16;99046.47;;;23.94;100.00
5753;BME280;2901;42.140;24.760;2022-09-02T00:57:46;99043.69;;;23.95;100.00
5753;BME280;2901;42.140;24.760;2022-09-02T01:00:14;99050.69;;;23.96;100.00
5753;BME280;2901;42.140;24.760;2022-09-02T01:02:43;99047.81;;;23.99;100.00
5753;BME280;2901;42.140;24.760;2022-09-02T01:05:12;99045.28;;;23.98;100.00
5753;BME280;2901;42.140;24.760;2022-09-02T01:07:39;99045.19;;;23.99;100.00
5753;BME280;2901;42.140;24.760;2022-09-02T01:10:10;99034.91;;;23.95;100.00
5753;BME280;2901;42.140;24.760;2022-09-02T01:12:36;99052.06;;;24.02;100.00
5753;BME280;2901;42.140;24.760;2022-09-02T01:15:03;99046.03;;;24.00;100.00
5753;BME280;2901;42.140;24.760;2022-09-02T01:17:29;99040.75;;;24.00;100.00
5753;BME280;2901;42.140;24.760;2022-09-02T01:20:04;99040.09;;;23.96;100.00
5753;BME280;2901;42.140;24.760;2022-09-02T01:22:31;99042.97;;;23.93;100.00
5753;BME280;2901;42.140;24.760;2022-09-02T01:25:05;99022.09;;;23.89;100.00
5753;BME280;2901;42.140;24.760;2022-09-02T01:27:31;99045.06;;;24.01;100.00
5753;BME280;2901;42.140;24.760;2022-09-02T01:29:58;99040.41;;;23.92;100.00
5753;BME280;2901;42.140;24.760;2022-09-02T01:32:26;99038.91;;;23.88;100.00
5753;BME280;2901;42.140;24.760;2022-09-02T01:34:51;99034.69;;;23.85;100.00
5753;BME280;2901;42.140;24.760;2022-09-02T01:37:18;99038.69;;;23.65;100.00
5753;BME280;2901;42.140;24.760;2022-09-02T01:39:44;99041.66;;;23.61;100.00
5753;BME280;2901;42.140;24.760;2022-09-02T01:42:10;99033.59;;;23.62;100.00
5753;BME280;2901;42.140;24.760;2022-09-02T01:44:36;99037.94;;;23.63;100.00
5753;BME280;2901;42.140;24.760;2022-09-02T01:47:12;99038.69;;;23.65;100.00
5753;BME280;2901;42.140;24.760;2022-09-02T01:49:38;99034.53;;;23.61;100.00
5753;BME280;2901;42.140;24.760;2022-09-02T01:52:04;99036.09;;;23.51;100.00
5753;BME280;2901;42.140;24.760;2022-09-02T01:54:29;99037.16;;;23.49;100.00
5753;BME280;2901;42.140;24.760;2022-09-02T01:56:55;99038.66;;;23.53;100.00
5753;BME280;2901;42.140;24.760;2022-09-02T01:59:20;99038.13;;;23.48;100.00
5753;BME280;2901;42.140;24.760;2022-09-02T02:01:46;99029.34;;;23.47;100.00
5753;BME280;2901;42.140;24.760;2022-09-02T02:04:12;99031.34;;;23.44;100.00
5753;BME280;2901;42.140;24.760;2022-09-02T02:06:39;99036.25;;;23.36;100.00
5753;BME280;2901;42.140;24.760;2022-09-02T02:09:06;99042.00;;;23.42;100.00
5753;BME280;2901;42.140;24.760;2022-09-02T02:11:32;99033.13;;;23.43;100.00
5753;BME280;2901;42.140;24.760;2022-09-02T02:13:58;99038.31;;;23.45;100.00
5753;BME280;2901;42.140;24.760;2022-09-02T02:16:24;99044.34;;;23.47;100.00
5753;BME280;2901;42.140;24.760;2022-09-02T02:18:49;99042.56;;;23.47;100.00
5753;BME280;2901;42.140;24.760;2022-09-02T02:21:15;99038.88;;;23.50;100.00
5753;BME280;2901;42.140;24.760;2022-09-02T02:23:40;99043.59;;;23.45;100.00
5753;BME280;2901;42.140;24.760;2022-09-02T02:26:06;99045.00;;;23.50;100.00
5753;BME280;2901;42.140;24.760;2022-09-02T02:28:32;99032.63;;;23.51;100.00
5753;BME280;2901;42.140;24.760;2022-09-02T02:30:58;99038.22;;;23.46;100.00
5753;BME280;2901;42.140;24.760;2022-09-02T02:33:25;99029.28;;;23.35;100.00
5753;BME280;2901;42.140;24.760;2022-09-02T02:35:51;99031.28;;;23.31;100.00
5753;BME280;2901;42.140;24.760;2022-09-02T02:38:16;99023.22;;;23.33;100.00
5753;BME280;2901;42.140;24.760;2022-09-02T02:40:42;99026.00;;;23.31;100.00
5753;BME280;2901;42.140;24.760;2022-09-02T02:43:07;99023.72;;;23.25;100.00
5753;BME280;2901;42.140;24.760;2022-09-02T02:45:33;99015.06;;;23.23;100.00
5753;BME280;2901;42.140;24.760;2022-09-02T02:47:58;99025.34;;;23.27;100.00
5753;BME280;2901;42.140;24.760;2022-09-02T02:50:24;99031.47;;;23.28;100.00
5753;BME280;2901;42.140;24.760;2022-09-02T02:52:50;99022.78;;;23.26;100.00
5753;BME280;2901;42.140;24.760;2022-09-02T02:55:19;99022.69;;;23.27;100.00
5753;BME280;2901;42.140;24.760;2022-09-02T02:57:45;99026.56;;;23.22;100.00
5753;BME280;2901;42.140;24.760;2022-09-02T03:00:20;99024.34;;;23.16;100.00
5753;BME280;2901;42.140;24.760;2022-09-02T03:02:47;99014.75;;;23.15;100.00
5753;BME280;2901;42.140;24.760;2022-09-02T03:05:13;99023.28;;;23.18;100.00
5753;BME280;2901;42.140;24.760;2022-09-02T03:07:39;99015.34;;;23.18;100.00
5753;BME280;2901;42.140;24.760;2022-09-02T03:10:06;99012.09;;;23.15;100.00
5753;BME280;2901;42.140;24.760;2022-09-02T03:12:36;99022.53;;;23.16;100.00
5753;BME280;2901;42.140;24.760;2022-09-02T03:15:03;99018.13;;;23.17;100.00
5753;BME280;2901;42.140;24.760;2022-09-02T03:17:29;99022.84;;;23.12;100.00
5753;BME280;2901;42.140;24.760;2022-09-02T03:19:55;99019.47;;;23.10;100.00
5753;BME280;2901;42.140;24.760;2022-09-02T03:22:24;99031.38;;;23.03;100.00
5753;BME280;2901;42.140;24.760;2022-09-02T03:24:49;99026.28;;;23.00;100.00
5753;BME280;2901;42.140;24.760;2022-09-02T03:27:14;99028.06;;;22.99;100.00
5753;BME280;2901;42.140;24.760;2022-09-02T03:29:40;99026.28;;;23.00;100.00
5753;BME280;2901;42.140;24.760;2022-09-02T03:32:05;99017.41;;;23.01;100.00
5753;BME280;2901;42.140;24.760;2022-09-02T03:34:31;99026.47;;;22.97;100.00
5753;BME280;2901;42.140;24.760;2022-09-02T03:36:57;99022.44;;;22.91;100.00
5753;BME280;2901;42.140;24.760;2022-09-02T03:39:22;99025.19;;;22.90;100.00
5753;BME280;2901;42.140;24.760;2022-09-02T03:41:48;99021.22;;;22.83;100.00
5753;BME280;2901;42.140;24.760;2022-09-02T03:44:15;99023.47;;;22.89;100.00
5753;BME280;2901;42.140;24.760;2022-09-02T03:46:40;99028.88;;;22.87;100.00
5753;BME280;2901;42.140;24.760;2022-09-02T03:49:06;99024.69;;;22.97;100.00
5753;BME280;2901;42.140;24.760;2022-09-02T03:51:32;99028.38;;;22.95;100.00
5753;BME280;2901;42.140;24.760;2022-09-02T03:53:57;99026.03;;;22.90;100.00
5753;BME280;2901;42.140;24.760;2022-09-02T03:56:23;99031.59;;;22.86;100.00
5753;BME280;2901;42.140;24.760;2022-09-02T03:58:50;99034.22;;;22.86;100.00
5753;BME280;2901;42.140;24.760;2022-09-02T04:01:21;99039.16;;;22.92;100.00
5753;BME280;2901;42.140;24.760;2022-09-02T04:03:47;99044.44;;;22.92;100.00
5753;BME280;2901;42.140;24.760;2022-09-02T04:06:16;99046.97;;;22.93;100.00
5753;BME280;2901;42.140;24.760;2022-09-02T04:08:43;99043.66;;;22.90;100.00
5753;BME280;2901;42.140;24.760;2022-09-02T04:11:12;99048.84;;;22.91;100.00
5753;BME280;2901;42.140;24.760;2022-09-02T04:13:39;99049.41;;;22.96;100.00
5753;BME280;2901;42.140;24.760;2022-09-02T04:16:13;99050.81;;;23.02;100.00
5753;BME280;2901;42.140;24.760;2022-09-02T04:18:39;99042.38;;;23.09;100.00
5753;BME280;2901;42.140;24.760;2022-09-02T04:21:05;99055.19;;;23.15;100.00
5753;BME280;2901;42.140;24.760;2022-09-02T04:23:32;99058.03;;;23.12;100.00
5753;BME280;2901;42.140;24.760;2022-09-02T04:26:01;99059.66;;;23.15;100.00
5753;BME280;2901;42.140;24.760;2022-09-02T04:28:27;99057.75;;;23.17;100.00
5753;BME280;2901;42.140;24.760;2022-09-02T04:30:52;99059.66;;;23.15;100.00
5753;BME280;2901;42.140;24.760;2022-09-02T04:33:17;99068.31;;;23.17;100.00
5753;BME280;2901;42.140;24.760;2022-09-02T04:35:44;99067.25;;;23.19;100.00
5753;BME280;2901;42.140;24.760;2022-09-02T04:38:11;99067.25;;;23.19;100.00
5753;BME280;2901;42.140;24.760;2022-09-02T04:40:45;99072.84;;;23.15;100.00
5753;BME280;2901;42.140;24.760;2022-09-02T04:43:11;99068.50;;;23.14;100.00
5753;BME280;2901;42.140;24.760;2022-09-02T04:45:42;99076.78;;;23.22;100.00
5753;BME280;2901;42.140;24.760;2022-09-02T04:48:08;99073.19;;;23.23;100.00
5753;BME280;2901;42.140;24.760;2022-09-02T04:50:36;99072.59;;;23.32;100.00
5753;BME280;2901;42.140;24.760;2022-09-02T04:53:02;99075.69;;;23.39;100.00
5753;BME280;2901;42.140;24.760;2022-09-02T04:55:28;99071.44;;;23.36;100.00
5753;BME280;2901;42.140;24.760;2022-09-02T04:57:53;99080.72;;;23.43;100.00
5753;BME280;2901;42.140;24.760;2022-09-02T05:00:19;99075.94;;;23.48;100.00
5753;BME280;2901;42.140;24.760;2022-09-02T05:02:44;99075.16;;;23.60;100.00
5753;BME280;2901;42.140;24.760;2022-09-02T05:05:10;99081.31;;;23.61;100.00
5753;BME280;2901;42.140;24.760;2022-09-02T05:07:37;99075.25;;;23.59;100.00
5753;BME280;2901;42.140;24.760;2022-09-02T05:10:04;99080.03;;;23.66;100.00
5753;BME280;2901;42.140;24.760;2022-09-02T05:12:31;99083.22;;;23.71;100.00
5753;BME280;2901;42.140;24.760;2022-09-02T05:14:57;99088.13;;;23.77;100.00
5753;BME280;2901;42.140;24.760;2022-09-02T05:17:26;99076.34;;;23.69;100.00
5753;BME280;2901;42.140;24.760;2022-09-02T05:19:52;99070.34;;;23.80;100.00
5753;BME280;2901;42.140;24.760;2022-09-02T05:22:17;99071.19;;;23.80;100.00
5753;BME280;2901;42.140;24.760;2022-09-02T05:24:43;99072.25;;;23.90;100.00
5753;BME280;2901;42.140;24.760;2022-09-02T05:27:09;99059.91;;;23.91;100.00
5753;BME280;2901;42.140;24.760;2022-09-02T05:29:35;99076.91;;;23.87;100.00
5753;BME280;2901;42.140;24.760;2022-09-02T05:32:01;99065.50;;;23.99;100.00
5753;BME280;2901;42.140;24.760;2022-09-02T05:34:28;99071.84;;;24.09;100.00
5753;BME280;2901;42.140;24.760;2022-09-02T05:36:53;99064.00;;;24.07;100.00
5753;BME280;2901;42.140;24.760;2022-09-02T05:39:19;99075.03;;;24.14;100.00
5753;BME280;2901;42.140;24.760;2022-09-02T05:41:44;99075.03;;;24.14;100.00
5753;BME280;2901;42.140;24.760;2022-09-02T05:44:10;99073.47;;;24.24;100.00
5753;BME280;2901;42.140;24.760;2022-09-02T05:46:35;99068.81;;;24.27;100.00
5753;BME280;2901;42.140;24.760;2022-09-02T05:49:02;99069.88;;;24.38;100.00
5753;BME280;2901;42.140;24.760;2022-09-02T05:51:41;99061.50;;;24.44;100.00
5753;BME280;2901;42.140;24.760;2022-09-02T05:54:32;99065.38;;;24.63;100.00
5753;BME280;2901;42.140;24.760;2022-09-02T05:57:00;99072.50;;;24.63;100.00
5753;BME280;2901;42.140;24.760;2022-09-02T05:59:27;99083.06;;;24.75;100.00
5753;BME280;2901;42.140;24.760;2022-09-02T06:01:54;99071.31;;;24.79;100.00
5753;BME280;2901;42.140;24.760;2022-09-02T06:04:21;99076.28;;;24.84;100.00
5753;BME280;2901;42.140;24.760;2022-09-02T06:06:47;99075.13;;;24.88;100.00
5753;BME280;2901;42.140;24.760;2022-09-02T06:09:15;99074.91;;;24.91;100.00
5753;BME280;2901;42.140;24.760;2022-09-02T06:11:42;99068.31;;;24.97;100.00
5753;BME280;2901;42.140;24.760;2022-09-02T06:14:15;99072.16;;;25.16;100.00
5753;BME280;2901;42.140;24.760;2022-09-02T06:16:42;99080.66;;;25.21;100.00
5753;BME280;2901;42.140;24.760;2022-09-02T06:19:08;99082.00;;;25.27;100.00
5753;BME280;2901;42.140;24.760;2022-09-02T06:21:36;99080.28;;;25.26;100.00
5753;BME280;2901;42.140;24.760;2022-09-02T06:24:06;99075.97;;;25.25;100.00
5753;BME280;2901;42.140;24.760;2022-09-02T06:26:31;99083.56;;;25.29;100.00
5753;BME280;2901;42.140;24.760;2022-09-02T06:28:57;99080.09;;;25.29;100.00
5753;BME280;2901;42.140;24.760;2022-09-02T06:31:22;99073.81;;;25.30;100.00
5753;BME280;2901;42.140;24.760;2022-09-02T06:33:51;99086.00;;;25.33;100.00
5753;BME280;2901;42.140;24.760;2022-09-02T06:36:19;99075.06;;;25.37;100.00
5753;BME280;2901;42.140;24.760;2022-09-02T06:38:47;99070.69;;;25.36;100.00
5753;BME280;2901;42.140;24.760;2022-09-02T06:41:15;99080.25;;;25.39;100.00
5753;BME280;2901;42.140;24.760;2022-09-02T06:43:41;99086.69;;;25.47;100.00
5753;BME280;2901;42.140;24.760;2022-09-02T06:46:07;99078.44;;;25.39;100.00
5753;BME280;2901;42.140;24.760;2022-09-02T06:48:33;99078.22;;;25.42;100.00
5753;BME280;2901;42.140;24.760;2022-09-02T06:50:59;99079.81;;;25.45;100.00
5753;BME280;2901;42.140;24.760;2022-09-02T06:53:26;99079.66;;;25.46;100.00
5753;BME280;2901;42.140;24.760;2022-09-02T06:55:51;99084.13;;;25.58;100.00
5753;BME280;2901;42.140;24.760;2022-09-02T06:58:17;99087.94;;;25.54;100.00
5753;BME280;2901;42.140;24.760;2022-09-02T07:00:42;99078.75;;;25.71;100.00
5753;BME280;2901;42.140;24.760;2022-09-02T07:03:08;99087.84;;;25.91;100.00
5753;BME280;2901;42.140;24.760;2022-09-02T07:06:10;99086.19;;;26.01;100.00
5753;BME280;2901;42.140;24.760;2022-09-02T07:08:36;99085.00;;;26.05;100.00
5753;BME280;2901;42.140;24.760;2022-09-02T07:11:03;99086.34;;;26.10;100.00
5753;BME280;2901;42.140;24.760;2022-09-02T07:13:28;99084.16;;;26.15;100.00
5753;BME280;2901;42.140;24.760;2022-09-02T07:15:54;99086.16;;;26.36;99.54
5753;BME280;2901;42.140;24.760;2022-09-02T07:18:19;99088.72;;;26.59;98.80
5753;BME280;2901;42.140;24.760;2022-09-02T07:20:46;99088.72;;;26.81;97.69
5753;BME280;2901;42.140;24.760;2022-09-02T07:23:13;99097.06;;;26.99;96.88
5753;BME280;2901;42.140;24.760;2022-09-02T07:25:39;99102.84;;;27.15;95.72
5753;BME280;2901;42.140;24.760;2022-09-02T07:28:06;99104.28;;;27.19;95.36
5753;BME280;2901;42.140;24.760;2022-09-02T07:30:32;99109.34;;;27.11;96.14
5753;BME280;2901;42.140;24.760;2022-09-02T07:32:57;99108.03;;;27.06;95.87
5753;BME280;2901;42.140;24.760;2022-09-02T07:35:24;99108.66;;;27.09;96.10
5753;BME280;2901;42.140;24.760;2022-09-02T07:37:49;99110.09;;;27.13;95.43
5753;BME280;2901;42.140;24.760;2022-09-02T07:40:15;99103.78;;;27.25;95.10
5753;BME280;2901;42.140;24.760;2022-09-02T07:42:42;99109.94;;;27.26;94.76
5753;BME280;2901;42.140;24.760;2022-09-02T07:45:08;99108.59;;;27.20;95.03
5753;BME280;2901;42.140;24.760;2022-09-02T07:47:34;99113.66;;;27.34;94.10
5753;BME280;2901;42.140;24.760;2022-09-02T07:49:59;99090.00;;;27.20;94.56
5753;BME280;2901;42.140;24.760;2022-09-02T07:52:25;99100.97;;;27.49;93.91
5753;BME280;2901;42.140;24.760;2022-09-02T07:54:50;99107.34;;;27.58;93.07
5753;BME280;2901;42.140;24.760;2022-09-02T07:57:15;99107.81;;;27.63;92.42
5753;BME280;2901;42.140;24.760;2022-09-02T07:59:41;99109.66;;;27.51;93.02
5753;BME280;2901;42.140;24.760;2022-09-02T08:02:07;99111.44;;;27.62;92.26
5753;BME280;2901;42.140;24.760;2022-09-02T08:04:33;99109.06;;;27.79;91.93
5753;BME280;2901;42.140;24.760;2022-09-02T08:06:59;99109.50;;;27.64;92.25
5753;BME280;2901;42.140;24.760;2022-09-02T08:09:24;99110.72;;;27.60;92.13
5753;BME280;2901;42.140;24.760;2022-09-02T08:11:50;99114.69;;;27.65;92.26
5753;BME280;2901;42.140;24.760;2022-09-02T08:14:20;99116.53;;;27.54;92.10
5753;BME280;2901;42.140;24.760;2022-09-02T08:16:46;99113.06;;;27.31;93.28
5753;BME280;2901;42.140;24.760;2022-09-02T08:19:13;99104.88;;;27.23;93.71
5753;BME280;2901;42.140;24.760;2022-09-02T08:21:39;99099.50;;;27.34;93.43
5753;BME280;2901;42.140;24.760;2022-09-02T08:24:04;99104.59;;;27.48;92.55
5753;BME280;2901;42.140;24.760;2022-09-02T08:26:30;99090.56;;;27.35;93.08
5753;BME280;2901;42.140;24.760;2022-09-02T08:28:56;99099.75;;;27.42;92.84
5753;BME280;2901;42.140;24.760;2022-09-02T08:31:22;99088.88;;;27.45;92.74
5753;BME280;2901;42.140;24.760;2022-09-02T08:33:47;99097.72;;;27.46;92.33
5753;BME280;2901;42.140;24.760;2022-09-02T08:36:13;99096.84;;;27.34;93.18
5753;BME280;2901;42.140;24.760;2022-09-02T08:38:40;99095.91;;;27.35;92.83
5753;BME280;2901;42.140;24.760;2022-09-02T08:41:25;99082.97;;;27.30;92.94
5753;BME280;2901;42.140;24.760;2022-09-02T08:43:53;99074.13;;;27.30;93.00
5753;BME280;2901;42.140;24.760;2022-09-02T08:46:21;99067.50;;;27.24;93.24
5753;BME280;2901;42.140;24.760;2022-09-02T08:48:52;99071.28;;;27.22;92.85
5753;BME280;2901;42.140;24.760;2022-09-02T08:51:24;99075.50;;;27.24;93.26
5753;BME280;2901;42.140;24.760;2022-09-02T08:54:03;99076.78;;;27.30;92.73
5753;BME280;2901;42.140;24.760;2022-09-02T08:56:30;99073.91;;;27.33;92.65
5753;BME280;2901;42.140;24.760;2022-09-02T08:58:56;99074.03;;;27.20;93.99
5753;BME280;2901;42.140;24.760;2022-09-02T09:15:10;99077.00;;;26.40;100.00
5753;BME280;2901;42.140;24.760;2022-09-02T09:17:56;99062.84;;;26.28;100.00
5753;BME280;2901;42.140;24.760;2022-09-02T09:20:29;99071.13;;;26.12;100.00
5753;BME280;2901;42.140;24.760;2022-09-02T09:22:59;99089.09;;;25.98;100.00
5753;BME280;2901;42.140;24.760;2022-09-02T09:25:26;99088.75;;;25.78;100.00
5753;BME280;2901;42.140;24.760;2022-09-02T09:27:58;99107.00;;;25.59;100.00
5753;BME280;2901;42.140;24.760;2022-09-02T09:30:24;99103.03;;;25.41;100.00
5753;BME280;2901;42.140;24.760;2022-09-02T09:32:55;99105.34;;;25.22;100.00
5753;BME280;2901;42.140;24.760;2022-09-02T09:35:23;99092.28;;;24.95;100.00
5753;BME280;2901;42.140;24.760;2022-09-02T09:37:50;99086.56;;;24.63;100.00
5753;BME280;2901;42.140;24.760;2022-09-02T09:43:10;99072.69;;;23.97;100.00
5753;BME280;2901;42.140;24.760;2022-09-02T09:48:24;99077.47;;;23.65;100.00
5753;BME280;2901;42.140;24.760;2022-09-02T09:53:24;99078.50;;;23.50;100.00
5753;BME280;2901;42.140;24.760;2022-09-02T09:55:58;99070.97;;;23.44;100.00
5753;BME280;2901;42.140;24.760;2022-09-02T09:58:51;99080.72;;;23.43;100.00
5753;BME280;2901;42.140;24.760;2022-09-02T10:01:18;99081.34;;;23.47;100.00
5753;BME280;2901;42.140;24.760;2022-09-02T10:03:55;99078.94;;;23.56;100.00
5753;BME280;2901;42.140;24.760;2022-09-02T10:06:41;99064.19;;;23.66;100.00
5753;BME280;2901;42.140;24.760;2022-09-02T10:12:00;99067.56;;;23.68;100.00
5753;BME280;2901;42.140;24.760;2022-09-02T10:14:34;99074.47;;;23.71;100.00
5753;BME280;2901;42.140;24.760;2022-09-02T10:30:45;99109.16;;;23.79;100.00
5753;BME280;2901;42.140;24.760;2022-09-02T10:43:53;99098.34;;;23.69;100.00
5753;BME280;2901;42.140;24.760;2022-09-02T10:46:23;99099.06;;;23.71;100.00
5753;BME280;2901;42.140;24.760;2022-09-02T10:51:52;99101.78;;;23.84;100.00
5753;BME280;2901;42.140;24.760;2022-09-02T10:57:22;99101.53;;;24.26;100.00
5753;BME280;2901;42.140;24.760;2022-09-02T11:02:25;99098.13;;;24.37;100.00
5753;BME280;2901;42.140;24.760;2022-09-02T11:04:58;99088.31;;;24.39;100.00
5753;BME280;2901;42.140;24.760;2022-09-02T11:07:29;99096.13;;;24.53;100.00
5753;BME280;2901;42.140;24.760;2022-09-02T11:10:05;99096.44;;;24.61;100.00
5753;BME280;2901;42.140;24.760;2022-09-02T11:12:59;99108.50;;;24.65;100.00
5753;BME280;2901;42.140;24.760;2022-09-02T11:18:08;99120.81;;;24.66;100.00
5753;BME280;2901;42.140;24.760;2022-09-02T11:20:46;99122.09;;;24.86;100.00
5753;BME280;2901;42.140;24.760;2022-09-02T11:23:37;99133.41;;;24.75;100.00
5753;BME280;2901;42.140;24.760;2022-09-02T11:26:23;99133.72;;;24.71;100.00
5753;BME280;2901;42.140;24.760;2022-09-02T11:31:45;99111.06;;;24.54;100.00
5753;BME280;2901;42.140;24.760;2022-09-02T11:34:25;99097.19;;;24.51;100.00
5753;BME280;2901;42.140;24.760;2022-09-02T11:37:03;99098.97;;;24.50;100.00
5753;BME280;2901;42.140;24.760;2022-09-02T11:39:49;99108.09;;;24.59;100.00
5753;BME280;2901;42.140;24.760;2022-09-02T11:47:36;99110.09;;;24.68;100.00
5753;BME280;2901;42.140;24.760;2022-09-02T11:50:28;99110.22;;;24.66;100.00
5753;BME280;2901;42.140;24.760;2022-09-02T11:56:05;99113.69;;;24.54;100.00
5753;BME280;2901;42.140;24.760;2022-09-02T12:03:28;99102.88;;;24.57;100.00
5753;BME280;2901;42.140;24.760;2022-09-02T12:06:06;99118.25;;;24.52;100.00
5753;BME280;2901;42.140;24.760;2022-09-02T12:11:01;99120.38;;;24.60;100.00
5753;BME280;2901;42.140;24.760;2022-09-02T12:13:43;99122.69;;;24.64;100.00
5753;BME280;2901;42.140;24.760;2022-09-02T12:21:21;99106.09;;;24.50;100.00
5753;BME280;2901;42.140;24.760;2022-09-02T12:26:29;99090.34;;;23.84;100.00
5753;BME280;2901;42.140;24.760;2022-09-02T12:32:01;99087.91;;;23.41;100.00
5753;BME280;2901;42.140;24.760;2022-09-02T12:36:56;99103.31;;;23.20;100.00
5753;BME280;2901;42.140;24.760;2022-09-02T12:52:43;99106.50;;;23.25;100.00
5753;BME280;2901;42.140;24.760;2022-09-02T12:57:46;99099.13;;;23.31;100.00
5753;BME280;2901;42.140;24.760;2022-09-02T13:00:24;99105.91;;;23.35;100.00
5753;BME280;2901;42.140;24.760;2022-09-02T13:05:47;99073.63;;;23.44;100.00
5753;BME280;2901;42.140;24.760;2022-09-02T13:18:56;99041.44;;;23.37;100.00
5753;BME280;2901;42.140;24.760;2022-09-02T13:32:23;99029.78;;;23.54;100.00
5753;BME280;2901;42.140;24.760;2022-09-02T13:34:52;99023.31;;;23.58;100.00
5753;BME280;2901;42.140;24.760;2022-09-02T13:37:51;99014.56;;;23.57;100.00
5753;BME280;2901;42.140;24.760;2022-09-02T13:40:23;99016.34;;;23.57;100.00
5753;BME280;2901;42.140;24.760;2022-09-02T13:45:24;99039.25;;;23.83;100.00
5753;BME280;2901;42.140;24.760;2022-09-02T13:47:52;99054.69;;;24.02;100.00
5753;BME280;2901;42.140;24.760;2022-09-02T13:50:21;99054.72;;;24.14;100.00
5753;BME280;2901;42.140;24.760;2022-09-02T13:52:51;99049.97;;;24.19;100.00
5753;BME280;2901;42.140;24.760;2022-09-02T13:55:18;99063.06;;;24.08;100.00
5753;BME280;2901;42.140;24.760;2022-09-02T13:57:53;99057.03;;;23.94;100.00
5753;BME280;2901;42.140;24.760;2022-09-02T14:00:45;99046.53;;;23.80;100.00
5753;BME280;2901;42.140;24.760;2022-09-02T14:03:17;99040.69;;;23.74;100.00
5753;BME280;2901;42.140;24.760;2022-09-02T14:05:45;99031.59;;;23.78;100.00
5753;BME280;2901;42.140;24.760;2022-09-02T14:08:13;99034.25;;;23.78;100.00
5753;BME280;2901;42.140;24.760;2022-09-02T14:10:39;99036.91;;;23.78;100.00
5753;BME280;2901;42.140;24.760;2022-09-02T14:13:07;99029.38;;;23.72;100.00
5753;BME280;2901;42.140;24.760;2022-09-02T14:15:34;99024.59;;;23.65;100.00
5753;BME280;2901;42.140;24.760;2022-09-02T14:18:16;99037.06;;;23.50;100.00
5753;BME280;2901;42.140;24.760;2022-09-02T14:23:20;99029.88;;;23.52;100.00
5753;BME280;2901;42.140;24.760;2022-09-02T14:25:53;99037.19;;;23.61;100.00
5753;BME280;2901;42.140;24.760;2022-09-02T14:28:25;99054.94;;;23.59;100.00
5753;BME280;2901;42.140;24.760;2022-09-02T14:31:03;99053.38;;;23.69;100.00
5753;BME280;2901;42.140;24.760;2022-09-02T14:33:45;99058.59;;;23.71;100.00
5753;BME280;2901;42.140;24.760;2022-09-02T14:38:52;99045.47;;;23.82;100.00
5753;BME280;2901;42.140;24.760;2022-09-02T14:41:27;99036.09;;;23.91;100.00
5753;BME280;2901;42.140;24.760;2022-09-02T14:43:59;99036.72;;;24.07;100.00
5753;BME280;2901;42.140;24.760;2022-09-02T14:46:30;99045.59;;;24.06;100.00
5753;BME280;2901;42.140;24.760;2022-09-02T14:51:48;99041.63;;;24.13;100.00
5753;BME280;2901;42.140;24.760;2022-09-02T14:56:58;99042.38;;;24.40;100.00
5753;BME280;2901;42.140;24.760;2022-09-02T14:59:24;99054.81;;;24.51;100.00
5753;BME280;2901;42.140;24.760;2022-09-02T15:01:50;99060.31;;;24.73;100.00
5753;BME280;2901;42.140;24.760;2022-09-02T15:04:17;99061.44;;;24.94;100.00
5753;BME280;2901;42.140;24.760;2022-09-02T15:06:44;99062.88;;;25.11;100.00
5753;BME280;2901;42.140;24.760;2022-09-02T15:09:10;99070.44;;;25.28;100.00
5753;BME280;2901;42.140;24.760;2022-09-02T15:11:39;99073.13;;;25.39;100.00
5753;BME280;2901;42.140;24.760;2022-09-02T15:14:05;99067.72;;;25.41;100.00
5753;BME280;2901;42.140;24.760;2022-09-02T15:16:31;99067.44;;;25.33;100.00
5753;BME280;2901;42.140;24.760;2022-09-02T15:18:56;99076.13;;;25.35;100.00
5753;BME280;2901;42.140;24.760;2022-09-02T15:21:22;99066.03;;;25.16;100.00
5753;BME280;2901;42.140;24.760;2022-09-02T15:23:47;99076.28;;;25.20;100.00
5753;BME280;2901;42.140;24.760;2022-09-02T15:26:14;99084.50;;;25.05;100.00
5753;BME280;2901;42.140;24.760;2022-09-02T15:28:39;99089.72;;;24.94;100.00
5753;BME280;2901;42.140;24.760;2022-09-02T15:31:06;99091.03;;;24.88;100.00
5753;BME280;2901;42.140;24.760;2022-09-02T15:33:32;99085.38;;;24.80;100.00
5753;BME280;2901;42.140;24.760;2022-09-02T15:36:05;99085.81;;;24.74;100.00
5753;BME280;2901;42.140;24.760;2022-09-02T15:38:31;99085.63;;;24.64;100.00